createdAt,value
2018-03-27T00:00:29.233Z,1031.45
2018-03-27T00:01:29.204Z,1031.44
2018-03-27T00:02:29.192Z,1031.46
2018-03-27T00:03:29.180Z,1031.42
2018-03-27T00:04:29.167Z,1031.42
2018-03-27T00:05:29.155Z,1031.37
2018-03-27T00:06:29.144Z,1031.38
2018-03-27T00:07:29.132Z,1031.35
2018-03-27T00:08:29.119Z,1031.35
2018-03-27T00:09:29.108Z,1031.36
2018-03-27T00:10:29.095Z,1031.39
2018-03-27T00:11:29.085Z,1031.44
2018-03-27T00:12:29.072Z,1031.51
2018-03-27T00:13:29.061Z,1031.49
2018-03-27T00:14:29.050Z,1031.52
2018-03-27T00:15:29.036Z,1031.53
2018-03-27T00:16:29.094Z,1031.57
2018-03-27T00:17:29.013Z,1031.56
2018-03-27T00:18:29.001Z,1031.58
2018-03-27T00:19:28.988Z,1031.64
2018-03-27T00:20:28.977Z,1031.66
2018-03-27T00:21:28.965Z,1031.64
2018-03-27T00:22:28.956Z,1031.66
2018-03-27T00:23:28.943Z,1031.69
2018-03-27T00:24:28.933Z,1031.7
2018-03-27T00:25:28.918Z,1031.73
2018-03-27T00:26:28.905Z,1031.76
2018-03-27T00:27:28.893Z,1031.73
2018-03-27T00:28:28.885Z,1031.69
2018-03-27T00:29:28.874Z,1031.67
2018-03-27T00:30:28.857Z,1031.64
2018-03-27T00:31:28.902Z,1031.67
2018-03-27T00:32:28.833Z,1031.69
2018-03-27T00:33:28.824Z,1031.7
2018-03-27T00:34:28.811Z,1031.69
2018-03-27T00:35:28.798Z,1031.7
2018-03-27T00:36:28.787Z,1031.68
2018-03-27T00:37:28.777Z,1031.67
2018-03-27T00:38:28.762Z,1031.65
2018-03-27T00:39:28.751Z,1031.64
2018-03-27T00:40:28.739Z,1031.6
2018-03-27T00:41:28.727Z,1031.57
2018-03-27T00:42:28.715Z,1031.55
2018-03-27T00:43:28.704Z,1031.54
2018-03-27T00:44:28.691Z,1031.5
2018-03-27T00:45:28.678Z,1031.51
2018-03-27T00:46:28.667Z,1031.53
2018-03-27T00:47:28.660Z,1031.47
2018-03-27T00:48:28.642Z,1031.48
2018-03-27T00:49:28.631Z,1031.43
2018-03-27T00:50:28.620Z,1031.43
2018-03-27T00:51:28.608Z,1031.47
2018-03-27T00:52:28.595Z,1031.44
2018-03-27T00:53:28.583Z,1031.43
2018-03-27T00:54:28.573Z,1031.46
2018-03-27T00:55:28.561Z,1031.43
2018-03-27T00:56:28.549Z,1031.41
2018-03-27T00:57:28.538Z,1031.4
2018-03-27T00:58:28.526Z,1031.38
2018-03-27T00:59:28.514Z,1031.39
2018-03-27T01:00:28.503Z,1031.39
2018-03-27T01:01:28.490Z,1031.42
2018-03-27T01:02:28.480Z,1031.41
2018-03-27T01:03:28.467Z,1031.4
2018-03-27T01:04:28.456Z,1031.41
2018-03-27T01:05:28.443Z,1031.41
2018-03-27T01:06:28.431Z,1031.37
2018-03-27T01:07:28.420Z,1031.35
2018-03-27T01:08:28.407Z,1031.34
2018-03-27T01:09:28.396Z,1031.32
2018-03-27T01:10:28.384Z,1031.33
2018-03-27T01:11:28.372Z,1031.35
2018-03-27T01:12:28.361Z,1031.33
2018-03-27T01:13:28.350Z,1031.34
2018-03-27T01:14:28.338Z,1031.34
2018-03-27T01:15:28.325Z,1031.33
2018-03-27T01:16:28.318Z,1031.34
2018-03-27T01:17:28.302Z,1031.32
2018-03-27T01:18:28.291Z,1031.35
2018-03-27T01:19:28.279Z,1031.34
2018-03-27T01:20:28.268Z,1031.32
2018-03-27T01:21:28.256Z,1031.35
2018-03-27T01:22:28.244Z,1031.39
2018-03-27T01:23:28.234Z,1031.38
2018-03-27T01:24:28.220Z,1031.4
2018-03-27T01:25:28.209Z,1031.4
2018-03-27T01:26:28.197Z,1031.42
2018-03-27T01:27:28.186Z,1031.44
2018-03-27T01:28:28.174Z,1031.41
2018-03-27T01:29:28.163Z,1031.43
2018-03-27T01:30:28.154Z,1031.45
2018-03-27T01:31:28.143Z,1031.42
2018-03-27T01:32:28.126Z,1031.41
2018-03-27T01:33:28.117Z,1031.38
2018-03-27T01:34:28.104Z,1031.37
2018-03-27T01:35:28.092Z,1031.35
2018-03-27T01:36:28.080Z,1031.44
2018-03-27T01:37:28.069Z,1031.41
2018-03-27T01:38:28.057Z,1031.44
2018-03-27T01:39:28.045Z,1031.4
2018-03-27T01:40:28.036Z,1031.43
2018-03-27T01:41:28.026Z,1031.46
2018-03-27T01:42:28.015Z,1031.43
2018-03-27T01:43:27.999Z,1031.51
2018-03-27T01:44:27.995Z,1031.48
2018-03-27T01:45:27.982Z,1031.52
2018-03-27T01:46:27.964Z,1031.51
2018-03-27T01:47:27.956Z,1031.5
2018-03-27T01:48:27.942Z,1031.54
2018-03-27T01:49:27.928Z,1031.53
2018-03-27T01:50:27.919Z,1031.53
2018-03-27T01:51:27.905Z,1031.52
2018-03-27T01:52:27.894Z,1031.53
2018-03-27T01:53:27.883Z,1031.54
2018-03-27T01:54:27.871Z,1031.49
2018-03-27T01:55:27.858Z,1031.49
2018-03-27T01:56:27.849Z,1031.47
2018-03-27T01:57:27.882Z,1031.47
2018-03-27T01:58:27.823Z,1031.46
2018-03-27T01:59:27.814Z,1031.4
2018-03-27T02:00:27.802Z,1031.41
2018-03-27T02:01:27.796Z,1031.41
2018-03-27T02:02:27.782Z,1031.35
2018-03-27T02:03:27.763Z,1031.35
2018-03-27T02:04:27.752Z,1031.33
2018-03-27T02:05:27.746Z,1031.37
2018-03-27T02:06:27.734Z,1031.43
2018-03-27T02:07:27.720Z,1031.44
2018-03-27T02:08:27.706Z,1031.5
2018-03-27T02:09:27.693Z,1031.49
2018-03-27T02:10:27.681Z,1031.49
2018-03-27T02:11:27.674Z,1031.47
2018-03-27T02:12:27.657Z,1031.48
2018-03-27T02:13:27.645Z,1031.51
2018-03-27T02:14:27.635Z,1031.57
2018-03-27T02:15:27.629Z,1031.57
2018-03-27T02:16:27.611Z,1031.6
2018-03-27T02:17:27.600Z,1031.59
2018-03-27T02:18:27.587Z,1031.64
2018-03-27T02:19:27.876Z,1031.61
2018-03-27T02:20:27.566Z,1031.59
2018-03-27T02:21:27.552Z,1031.55
2018-03-27T02:22:27.545Z,1031.52
2018-03-27T02:23:27.528Z,1031.49
2018-03-27T02:24:27.529Z,1031.45
2018-03-27T02:25:27.511Z,1031.43
2018-03-27T02:26:27.493Z,1031.36
2018-03-27T02:27:27.482Z,1031.32
2018-03-27T02:28:27.468Z,1031.31
2018-03-27T02:29:27.460Z,1031.23
2018-03-27T02:30:27.446Z,1031.26
2018-03-27T02:31:27.448Z,1031.22
2018-03-27T02:32:27.424Z,1031.2
2018-03-27T02:33:27.412Z,1031.24
2018-03-27T02:34:27.401Z,1031.25
2018-03-27T02:35:27.388Z,1031.29
2018-03-27T02:36:27.376Z,1031.28
2018-03-27T02:37:27.365Z,1031.3
2018-03-27T02:38:27.354Z,1031.34
2018-03-27T02:39:27.341Z,1031.36
2018-03-27T02:40:27.330Z,1031.37
2018-03-27T02:41:27.317Z,1031.38
2018-03-27T02:42:27.306Z,1031.36
2018-03-27T02:43:27.294Z,1031.4
2018-03-27T02:44:27.287Z,1031.38
2018-03-27T02:45:27.271Z,1031.39
2018-03-27T02:46:27.259Z,1031.41
2018-03-27T02:47:27.249Z,1031.43
2018-03-27T02:48:27.237Z,1031.39
2018-03-27T02:49:27.225Z,1031.41
2018-03-27T02:50:27.214Z,1031.43
2018-03-27T02:51:27.201Z,1031.42
2018-03-27T02:52:27.188Z,1031.44
2018-03-27T02:53:27.184Z,1031.43
2018-03-27T02:54:27.167Z,1031.39
2018-03-27T02:55:27.157Z,1031.43
2018-03-27T02:56:27.142Z,1031.42
2018-03-27T02:57:27.131Z,1031.42
2018-03-27T02:58:27.119Z,1031.44
2018-03-27T02:59:27.113Z,1031.42
2018-03-27T03:00:27.097Z,1031.44
2018-03-27T03:01:27.100Z,1031.45
2018-03-27T03:02:27.072Z,1031.45
2018-03-27T03:03:27.060Z,1031.47
2018-03-27T03:04:27.049Z,1031.5
2018-03-27T03:05:27.037Z,1031.51
2018-03-27T03:06:27.032Z,1031.48
2018-03-27T03:07:27.021Z,1031.54
2018-03-27T03:08:27.001Z,1031.49
2018-03-27T03:09:26.992Z,1031.57
2018-03-27T03:10:26.978Z,1031.51
2018-03-27T03:11:26.966Z,1031.59
2018-03-27T03:12:26.955Z,1031.61
2018-03-27T03:13:26.943Z,1031.63
2018-03-27T03:14:26.929Z,1031.62
2018-03-27T03:15:26.919Z,1031.62
2018-03-27T03:16:26.907Z,1031.58
2018-03-27T03:17:26.895Z,1031.61
2018-03-27T03:18:26.886Z,1031.61
2018-03-27T03:19:26.871Z,1031.58
2018-03-27T03:20:26.866Z,1031.55
2018-03-27T03:21:26.848Z,1031.52
2018-03-27T03:22:26.835Z,1031.53
2018-03-27T03:23:26.824Z,1031.51
2018-03-27T03:24:26.817Z,1031.46
2018-03-27T03:25:26.800Z,1031.47
2018-03-27T03:26:26.788Z,1031.43
2018-03-27T03:27:26.776Z,1031.46
2018-03-27T03:28:26.765Z,1031.49
2018-03-27T03:29:26.753Z,1031.45
2018-03-27T03:30:26.751Z,1031.43
2018-03-27T03:31:26.730Z,1031.44
2018-03-27T03:32:26.718Z,1031.43
2018-03-27T03:33:26.706Z,1031.47
2018-03-27T03:34:26.694Z,1031.51
2018-03-27T03:35:26.683Z,1031.56
2018-03-27T03:36:26.670Z,1031.57
2018-03-27T03:37:26.658Z,1031.61
2018-03-27T03:38:26.647Z,1031.62
2018-03-27T03:39:26.636Z,1031.59
2018-03-27T03:40:26.623Z,1031.62
2018-03-27T03:41:26.612Z,1031.64
2018-03-27T03:42:26.601Z,1031.61
2018-03-27T03:43:26.589Z,1031.69
2018-03-27T03:44:26.577Z,1031.71
2018-03-27T03:45:26.564Z,1031.7
2018-03-27T03:46:26.552Z,1031.71
2018-03-27T03:47:26.540Z,1031.7
2018-03-27T03:48:26.529Z,1031.74
2018-03-27T03:49:26.516Z,1031.73
2018-03-27T03:50:26.506Z,1031.76
2018-03-27T03:51:26.492Z,1031.74
2018-03-27T03:52:26.481Z,1031.77
2018-03-27T03:53:26.470Z,1031.76
2018-03-27T03:54:26.458Z,1031.77
2018-03-27T03:55:26.445Z,1031.76
2018-03-27T03:56:26.434Z,1031.83
2018-03-27T03:57:26.421Z,1031.83
2018-03-27T03:58:26.412Z,1031.94
2018-03-27T03:59:26.398Z,1032
2018-03-27T04:00:26.458Z,1032.02
2018-03-27T04:01:26.374Z,1032.01
2018-03-27T04:02:26.362Z,1032.06
2018-03-27T04:03:26.352Z,1032.06
2018-03-27T04:04:26.338Z,1032.04
2018-03-27T04:05:26.327Z,1032.07
2018-03-27T04:06:26.314Z,1032.08
2018-03-27T04:07:26.302Z,1032.08
2018-03-27T04:08:26.291Z,1032.07
2018-03-27T04:09:26.279Z,1032.1
2018-03-27T04:10:26.266Z,1032.06
2018-03-27T04:11:26.261Z,1032.07
2018-03-27T04:12:26.243Z,1032.05
2018-03-27T04:13:26.232Z,1032.01
2018-03-27T04:14:26.220Z,1032.02
2018-03-27T04:15:26.206Z,1032.03
2018-03-27T04:16:26.193Z,1032.04
2018-03-27T04:17:26.187Z,1032
2018-03-27T04:18:26.169Z,1031.95
2018-03-27T04:19:26.160Z,1031.93
2018-03-27T04:20:26.144Z,1031.89
2018-03-27T04:21:26.133Z,1031.85
2018-03-27T04:22:26.120Z,1031.81
2018-03-27T04:23:26.109Z,1031.76
2018-03-27T04:24:26.099Z,1031.77
2018-03-27T04:25:26.084Z,1031.74
2018-03-27T04:26:26.071Z,1031.71
2018-03-27T04:27:26.060Z,1031.7
2018-03-27T04:28:26.047Z,1031.73
2018-03-27T04:29:26.038Z,1031.7
2018-03-27T04:30:26.023Z,1031.67
2018-03-27T04:31:26.016Z,1031.69
2018-03-27T04:32:25.998Z,1031.65
2018-03-27T04:33:25.986Z,1031.63
2018-03-27T04:34:25.974Z,1031.59
2018-03-27T04:35:25.960Z,1031.59
2018-03-27T04:36:25.951Z,1031.51
2018-03-27T04:37:25.937Z,1031.5
2018-03-27T04:38:25.924Z,1031.49
2018-03-27T04:39:25.922Z,1031.47
2018-03-27T04:40:25.901Z,1031.46
2018-03-27T04:41:25.889Z,1031.45
2018-03-27T04:42:25.877Z,1031.42
2018-03-27T04:43:25.864Z,1031.43
2018-03-27T04:44:25.852Z,1031.39
2018-03-27T04:45:25.840Z,1031.36
2018-03-27T04:46:25.827Z,1031.35
2018-03-27T04:47:25.816Z,1031.38
2018-03-27T04:48:25.804Z,1031.39
2018-03-27T04:49:25.791Z,1031.39
2018-03-27T04:50:25.780Z,1031.45
2018-03-27T04:51:25.768Z,1031.41
2018-03-27T04:52:25.803Z,1031.39
2018-03-27T04:53:25.745Z,1031.36
2018-03-27T04:54:25.737Z,1031.44
2018-03-27T04:55:25.721Z,1031.39
2018-03-27T04:56:25.710Z,1031.44
2018-03-27T04:57:25.696Z,1031.47
2018-03-27T04:58:25.685Z,1031.42
2018-03-27T04:59:25.673Z,1031.45
2018-03-27T05:00:25.660Z,1031.44
2018-03-27T05:01:25.648Z,1031.44
2018-03-27T05:02:25.674Z,1031.46
2018-03-27T05:03:25.626Z,1031.4
2018-03-27T05:04:25.617Z,1031.43
2018-03-27T05:05:25.601Z,1031.44
2018-03-27T05:06:25.589Z,1031.38
2018-03-27T05:07:25.578Z,1031.38
2018-03-27T05:08:25.566Z,1031.38
2018-03-27T05:09:25.561Z,1031.43
2018-03-27T05:10:25.541Z,1031.46
2018-03-27T05:11:25.548Z,1031.47
2018-03-27T05:12:25.518Z,1031.49
2018-03-27T05:13:25.506Z,1031.51
2018-03-27T05:14:25.495Z,1031.57
2018-03-27T05:15:25.482Z,1031.64
2018-03-27T05:16:25.470Z,1031.74
2018-03-27T05:17:25.459Z,1031.77
2018-03-27T05:18:25.449Z,1031.85
2018-03-27T05:19:25.434Z,1031.93
2018-03-27T05:20:25.422Z,1031.96
2018-03-27T05:21:25.411Z,1031.95
2018-03-27T05:22:25.398Z,1031.96
2018-03-27T05:23:25.387Z,1031.97
2018-03-27T05:24:25.376Z,1031.95
2018-03-27T05:25:25.364Z,1031.96
2018-03-27T05:26:25.387Z,1031.96
2018-03-27T05:27:25.340Z,1031.91
2018-03-27T05:28:25.328Z,1031.9
2018-03-27T05:29:25.321Z,1031.84
2018-03-27T05:30:25.304Z,1031.84
2018-03-27T05:31:25.292Z,1031.81
2018-03-27T05:32:25.279Z,1031.76
2018-03-27T05:33:25.273Z,1031.71
2018-03-27T05:34:25.262Z,1031.66
2018-03-27T05:35:25.244Z,1031.62
2018-03-27T05:36:25.240Z,1031.61
2018-03-27T05:37:25.220Z,1031.56
2018-03-27T05:38:25.208Z,1031.52
2018-03-27T05:39:25.210Z,1031.54
2018-03-27T05:40:25.185Z,1031.52
2018-03-27T05:41:25.174Z,1031.56
2018-03-27T05:42:25.162Z,1031.58
2018-03-27T05:43:25.150Z,1031.62
2018-03-27T05:44:25.153Z,1031.66
2018-03-27T05:45:25.131Z,1031.71
2018-03-27T05:46:25.115Z,1031.67
2018-03-27T05:47:25.103Z,1031.65
2018-03-27T05:48:25.090Z,1031.58
2018-03-27T05:49:25.079Z,1031.58
2018-03-27T05:50:25.068Z,1031.57
2018-03-27T05:51:25.055Z,1031.57
2018-03-27T05:52:25.044Z,1031.6
2018-03-27T05:53:25.036Z,1031.56
2018-03-27T05:54:25.021Z,1031.57
2018-03-27T05:55:25.009Z,1031.53
2018-03-27T05:56:25.000Z,1031.46
2018-03-27T05:57:24.987Z,1031.39
2018-03-27T05:58:24.976Z,1031.3
2018-03-27T05:59:24.962Z,1031.27
2018-03-27T06:00:24.951Z,1031.16
2018-03-27T06:01:24.939Z,1031.04
2018-03-27T06:02:24.926Z,1030.93
2018-03-27T06:03:24.915Z,1030.82
2018-03-27T06:04:24.904Z,1030.73
2018-03-27T06:05:24.894Z,1030.65
2018-03-27T06:06:24.882Z,1030.61
2018-03-27T06:07:24.873Z,1030.53
2018-03-27T06:08:24.860Z,1030.43
2018-03-27T06:09:24.849Z,1030.4
2018-03-27T06:10:24.837Z,1030.41
2018-03-27T06:11:24.826Z,1030.39
2018-03-27T06:12:24.816Z,1030.41
2018-03-27T06:13:24.821Z,1030.41
2018-03-27T06:14:24.794Z,1030.45
2018-03-27T06:15:24.783Z,1030.46
2018-03-27T06:16:24.772Z,1030.49
2018-03-27T06:17:24.763Z,1030.54
2018-03-27T06:18:24.751Z,1030.55
2018-03-27T06:19:24.739Z,1030.61
2018-03-27T06:20:24.729Z,1030.6
2018-03-27T06:21:24.718Z,1030.59
2018-03-27T06:22:24.708Z,1030.58
2018-03-27T06:23:24.698Z,1030.58
2018-03-27T06:24:24.685Z,1030.63
2018-03-27T06:25:24.684Z,1030.62
2018-03-27T06:26:24.664Z,1030.55
2018-03-27T06:27:24.697Z,1030.45
2018-03-27T06:28:24.643Z,1030.36
2018-03-27T06:29:24.638Z,1030.26
2018-03-27T06:30:24.623Z,1030.2
2018-03-27T06:31:24.612Z,1030.12
2018-03-27T06:32:24.601Z,1030.04
2018-03-27T06:33:24.591Z,1029.97
2018-03-27T06:34:24.583Z,1029.99
2018-03-27T06:35:24.570Z,1030.02
2018-03-27T06:36:24.573Z,1029.99
2018-03-27T06:37:24.549Z,1029.98
2018-03-27T06:38:24.539Z,1029.99
2018-03-27T06:39:24.528Z,1029.98
2018-03-27T06:40:24.518Z,1029.94
2018-03-27T06:41:24.509Z,1029.9
2018-03-27T06:42:24.501Z,1029.91
2018-03-27T06:43:24.489Z,1029.83
2018-03-27T06:44:24.478Z,1029.79
2018-03-27T06:45:24.478Z,1029.68
2018-03-27T06:46:24.459Z,1029.62
2018-03-27T06:47:24.448Z,1029.48
2018-03-27T06:48:24.438Z,1029.46
2018-03-27T06:49:24.429Z,1029.39
2018-03-27T06:50:24.420Z,1029.33
2018-03-27T06:51:24.410Z,1029.31
2018-03-27T06:52:24.401Z,1029.24
2018-03-27T06:53:24.390Z,1029.18
2018-03-27T06:54:24.380Z,1029.12
2018-03-27T06:55:24.371Z,1029.09
2018-03-27T06:56:24.362Z,1029.11
2018-03-27T06:57:24.355Z,1029.02
2018-03-27T06:58:24.344Z,1029
2018-03-27T06:59:24.334Z,1028.98
2018-03-27T07:00:24.331Z,1029
2018-03-27T07:01:24.315Z,1028.9
2018-03-27T07:02:24.335Z,1028.82
2018-03-27T07:03:24.298Z,1028.69
2018-03-27T07:04:24.300Z,1028.6
2018-03-27T07:05:24.305Z,1028.51
2018-03-27T07:06:24.272Z,1028.47
2018-03-27T07:07:24.264Z,1028.4
2018-03-27T07:08:24.255Z,1028.31
2018-03-27T07:09:24.263Z,1028.2
2018-03-27T07:10:24.239Z,1028.16
2018-03-27T07:11:24.274Z,1028.09
2018-03-27T07:12:24.220Z,1027.92
2018-03-27T07:13:24.228Z,1027.91
2018-03-27T07:14:24.222Z,1027.88
2018-03-27T07:15:24.197Z,1027.77
2018-03-27T07:16:24.206Z,1027.64
2018-03-27T07:17:24.181Z,1027.48
2018-03-27T07:18:24.174Z,1027.23
2018-03-27T07:19:24.186Z,1027.01
2018-03-27T07:20:24.182Z,1026.98
2018-03-27T07:21:24.154Z,1027.01
2018-03-27T07:22:24.156Z,1027.11
2018-03-27T07:23:24.136Z,1027.2
2018-03-27T07:24:24.128Z,1027.27
2018-03-27T07:25:24.121Z,1027.28
2018-03-27T07:26:24.114Z,1027.24
2018-03-27T07:27:24.111Z,1027.13
2018-03-27T07:28:24.099Z,1027.04
2018-03-27T07:29:24.095Z,1027.11
2018-03-27T07:30:24.085Z,1027.31
2018-03-27T07:31:24.093Z,1027.41
2018-03-27T07:32:24.114Z,1027.45
2018-03-27T07:33:24.066Z,1027.38
2018-03-27T07:34:24.060Z,1026.87
2018-03-27T07:35:24.063Z,1025.89
2018-03-27T07:36:24.046Z,1025.24
2018-03-27T07:37:24.048Z,1024.72
2018-03-27T07:38:24.034Z,1024.33
2018-03-27T07:39:24.029Z,1023.99
2018-03-27T07:40:24.024Z,1023.77
2018-03-27T07:41:24.019Z,1023.56
2018-03-27T07:42:24.015Z,1023.28
2018-03-27T07:43:24.011Z,1022.96
2018-03-27T07:44:24.007Z,1022.77
2018-03-27T07:45:24.003Z,1022.55
2018-03-27T07:46:24.251Z,1022.45
2018-03-27T07:47:23.998Z,1022.53
2018-03-27T07:48:23.994Z,1022.69
2018-03-27T07:49:23.995Z,1022.83
2018-03-27T07:50:23.991Z,1022.85
2018-03-27T07:51:23.989Z,1022.82
2018-03-27T07:52:23.987Z,1022.74
2018-03-27T07:53:24.001Z,1022.64
2018-03-27T07:54:24.001Z,1022.67
2018-03-27T07:55:23.981Z,1022.66
2018-03-27T07:56:23.980Z,1022.55
2018-03-27T07:57:23.979Z,1022.5
2018-03-27T07:58:23.978Z,1022.49
2018-03-27T07:59:23.979Z,1022.53
2018-03-27T08:00:23.976Z,1023.09
2018-03-27T08:01:23.975Z,1023.71
2018-03-27T08:02:23.976Z,1024.21
2018-03-27T08:03:23.975Z,1023.97
2018-03-27T08:04:23.973Z,1024.37
2018-03-27T08:05:23.972Z,1024.78
2018-03-27T08:06:23.972Z,1025.12
2018-03-27T08:07:23.969Z,1025.42
2018-03-27T08:08:23.971Z,1025.73
2018-03-27T08:09:23.978Z,1026.06
2018-03-27T08:10:23.964Z,1026.28
2018-03-27T08:11:23.962Z,1026.52
2018-03-27T08:12:23.981Z,1026.69
2018-03-27T08:13:23.957Z,1026.83
2018-03-27T08:14:23.956Z,1026.97
2018-03-27T08:15:23.951Z,1026.99
2018-03-27T08:16:24.004Z,1026.99
2018-03-27T08:17:23.957Z,1026.99
2018-03-27T08:18:23.950Z,1026.93
2018-03-27T08:19:23.938Z,1026.97
2018-03-27T08:20:23.934Z,1026.95
2018-03-27T08:21:23.930Z,1026.91
2018-03-27T08:22:23.927Z,1026.93
2018-03-27T08:23:23.923Z,1026.93
2018-03-27T08:24:23.983Z,1026.95
2018-03-27T08:25:23.914Z,1026.89
2018-03-27T08:26:23.911Z,1026.87
2018-03-27T08:27:23.906Z,1026.88
2018-03-27T08:28:23.907Z,1026.85
2018-03-27T08:29:23.935Z,1026.8
2018-03-27T08:30:23.895Z,1026.74
2018-03-27T08:31:23.888Z,1026.66
2018-03-27T08:32:23.883Z,1026.53
2018-03-27T08:33:23.879Z,1026.48
2018-03-27T08:34:23.888Z,1026.45
2018-03-27T08:35:23.873Z,1026.44
2018-03-27T08:36:23.972Z,1026.53
2018-03-27T08:37:23.861Z,1026.76
2018-03-27T08:38:23.913Z,1027.01
2018-03-27T08:39:23.852Z,1027.37
2018-03-27T08:40:23.844Z,1027.5
2018-03-27T08:41:23.857Z,1027.73
2018-03-27T08:42:23.836Z,1027.89
2018-03-27T08:43:23.863Z,1028.05
2018-03-27T08:44:23.824Z,1028.14
2018-03-27T08:45:23.820Z,1028.24
2018-03-27T08:46:23.814Z,1028.3
2018-03-27T08:47:23.808Z,1028.24
2018-03-27T08:48:23.802Z,1028.13
2018-03-27T08:49:23.797Z,1028
2018-03-27T08:50:23.792Z,1027.83
2018-03-27T08:51:23.789Z,1027.64
2018-03-27T08:52:23.783Z,1027.52
2018-03-27T08:53:23.787Z,1027.44
2018-03-27T08:54:23.785Z,1027.34
2018-03-27T08:55:23.763Z,1027.17
2018-03-27T08:56:23.762Z,1027.09
2018-03-27T08:57:23.753Z,1027.03
2018-03-27T08:58:23.747Z,1026.98
2018-03-27T08:59:23.741Z,1026.92
2018-03-27T09:00:23.735Z,1026.93
2018-03-27T09:01:23.729Z,1026.93
2018-03-27T09:02:23.725Z,1027.03
2018-03-27T09:03:23.722Z,1027.16
2018-03-27T09:04:23.713Z,1027.23
2018-03-27T09:05:23.724Z,1027.31
2018-03-27T09:06:23.705Z,1027.29
2018-03-27T09:07:23.697Z,1027.38
2018-03-27T09:08:23.692Z,1027.38
2018-03-27T09:09:23.685Z,1027.47
2018-03-27T09:10:23.683Z,1027.46
2018-03-27T09:11:23.674Z,1027.44
2018-03-27T09:12:23.670Z,1027.57
2018-03-27T09:13:23.662Z,1027.64
2018-03-27T09:14:23.658Z,1027.72
2018-03-27T09:15:23.651Z,1027.78
2018-03-27T09:16:23.646Z,1027.83
2018-03-27T09:17:23.640Z,1027.77
2018-03-27T09:18:23.635Z,1027.77
2018-03-27T09:19:23.629Z,1027.8
2018-03-27T09:20:23.623Z,1027.81
2018-03-27T09:21:23.620Z,1027.76
2018-03-27T09:22:23.612Z,1027.73
2018-03-27T09:23:23.666Z,1027.69
2018-03-27T09:24:23.599Z,1027.67
2018-03-27T09:25:23.599Z,1027.64
2018-03-27T09:26:23.588Z,1027.63
2018-03-27T09:27:23.590Z,1027.52
2018-03-27T09:28:23.576Z,1027.39
2018-03-27T09:29:23.572Z,1027.28
2018-03-27T09:30:23.571Z,1027.18
2018-03-27T09:31:23.564Z,1027.08
2018-03-27T09:32:23.552Z,1026.97
2018-03-27T09:33:23.546Z,1026.93
2018-03-27T09:34:23.541Z,1026.88
2018-03-27T09:35:23.534Z,1026.85
2018-03-27T09:36:23.547Z,1026.69
2018-03-27T09:37:23.528Z,1026.58
2018-03-27T09:38:23.534Z,1026.47
2018-03-27T09:39:23.512Z,1026.35
2018-03-27T09:40:23.506Z,1026.22
2018-03-27T09:41:23.515Z,1026.13
2018-03-27T09:42:23.495Z,1026.1
2018-03-27T09:43:23.504Z,1025.95
2018-03-27T09:44:23.500Z,1025.83
2018-03-27T09:45:23.488Z,1025.7
2018-03-27T09:46:23.476Z,1025.69
2018-03-27T09:47:23.473Z,1025.72
2018-03-27T09:48:23.481Z,1025.74
2018-03-27T09:49:23.466Z,1025.79
2018-03-27T09:50:23.456Z,1025.8
2018-03-27T09:51:23.452Z,1025.81
2018-03-27T09:52:23.464Z,1025.77
2018-03-27T09:53:23.443Z,1025.73
2018-03-27T09:54:23.438Z,1025.59
2018-03-27T09:55:23.434Z,1025.5
2018-03-27T09:56:23.428Z,1025.49
2018-03-27T09:57:23.424Z,1025.55
2018-03-27T09:58:23.471Z,1025.57
2018-03-27T09:59:23.421Z,1025.68
2018-03-27T10:00:23.428Z,1025.79
2018-03-27T10:01:23.413Z,1025.93
2018-03-27T10:02:23.402Z,1026.02
2018-03-27T10:03:23.406Z,1026.14
2018-03-27T10:04:23.409Z,1026.37
2018-03-27T10:05:23.391Z,1026.51
2018-03-27T10:06:23.387Z,1026.72
2018-03-27T10:07:23.379Z,1026.82
2018-03-27T10:08:23.374Z,1026.99
2018-03-27T10:09:23.372Z,1027.09
2018-03-27T10:10:23.367Z,1027.14
2018-03-27T10:11:23.360Z,1027.18
2018-03-27T10:12:23.356Z,1027.19
2018-03-27T10:13:23.368Z,1027.23
2018-03-27T10:14:23.346Z,1027.24
2018-03-27T10:15:23.341Z,1027.25
2018-03-27T10:16:23.336Z,1027.3
2018-03-27T10:17:23.330Z,1027.4
2018-03-27T10:18:23.326Z,1027.44
2018-03-27T10:19:23.337Z,1027.43
2018-03-27T10:20:23.314Z,1027.39
2018-03-27T10:21:23.310Z,1027.36
2018-03-27T10:22:23.312Z,1027.28
2018-03-27T10:23:23.306Z,1027.27
2018-03-27T10:24:23.292Z,1027.23
2018-03-27T10:25:23.286Z,1027.18
2018-03-27T10:26:23.282Z,1027.19
2018-03-27T10:27:23.287Z,1027.17
2018-03-27T10:28:23.271Z,1027.15
2018-03-27T10:29:23.264Z,1027.17
2018-03-27T10:30:23.259Z,1027.12
2018-03-27T10:31:23.252Z,1027.11
2018-03-27T10:32:23.250Z,1027.13
2018-03-27T10:33:23.241Z,1027.13
2018-03-27T10:34:23.238Z,1027.12
2018-03-27T10:35:23.245Z,1027.09
2018-03-27T10:36:23.223Z,1027.1
2018-03-27T10:37:23.217Z,1027.09
2018-03-27T10:38:23.212Z,1027.07
2018-03-27T10:39:23.206Z,1027.07
2018-03-27T10:40:23.204Z,1027.04
2018-03-27T10:41:23.194Z,1027.02
2018-03-27T10:42:23.189Z,1027
2018-03-27T10:43:23.199Z,1027
2018-03-27T10:44:23.176Z,1026.98
2018-03-27T10:45:23.237Z,1026.94
2018-03-27T10:46:23.169Z,1026.94
2018-03-27T10:47:23.161Z,1026.93
2018-03-27T10:48:23.159Z,1026.84
2018-03-27T10:49:23.158Z,1026.78
2018-03-27T10:50:23.148Z,1026.73
2018-03-27T10:51:23.136Z,1026.67
2018-03-27T10:52:23.130Z,1026.55
2018-03-27T10:53:23.134Z,1026.48
2018-03-27T10:54:23.130Z,1026.31
2018-03-27T10:55:23.114Z,1026.23
2018-03-27T10:56:23.114Z,1026.17
2018-03-27T10:57:23.102Z,1026.04
2018-03-27T10:58:23.097Z,1025.96
2018-03-27T10:59:23.090Z,1025.83
2018-03-27T11:00:23.085Z,1025.79
2018-03-27T11:01:23.080Z,1025.76
2018-03-27T11:02:23.084Z,1025.74
2018-03-27T11:03:23.069Z,1025.78
2018-03-27T11:04:23.077Z,1025.77
2018-03-27T11:05:23.059Z,1025.73
2018-03-27T11:06:23.054Z,1025.68
2018-03-27T11:07:23.049Z,1025.59
2018-03-27T11:08:23.044Z,1025.61
2018-03-27T11:09:23.043Z,1025.52
2018-03-27T11:10:23.034Z,1025.48
2018-03-27T11:11:23.044Z,1025.54
2018-03-27T11:12:23.080Z,1025.55
2018-03-27T11:13:23.019Z,1025.62
2018-03-27T11:14:23.024Z,1025.57
2018-03-27T11:15:23.017Z,1025.56
2018-03-27T11:16:23.007Z,1025.54
2018-03-27T11:17:23.003Z,1025.48
2018-03-27T11:18:23.001Z,1025.46
2018-03-27T11:19:22.993Z,1025.43
2018-03-27T11:20:22.986Z,1025.38
2018-03-27T11:21:22.981Z,1025.33
2018-03-27T11:22:22.979Z,1025.28
2018-03-27T11:23:23.026Z,1025.29
2018-03-27T11:24:22.972Z,1025.27
2018-03-27T11:25:22.995Z,1025.25
2018-03-27T11:26:22.964Z,1025.22
2018-03-27T11:27:22.962Z,1025.15
2018-03-27T11:28:22.960Z,1025.08
2018-03-27T11:29:22.950Z,1025
2018-03-27T11:30:22.949Z,1024.93
2018-03-27T11:31:22.940Z,1024.86
2018-03-27T11:32:22.934Z,1024.78
2018-03-27T11:33:22.930Z,1024.69
2018-03-27T11:34:22.925Z,1024.63
2018-03-27T11:35:22.921Z,1024.61
2018-03-27T11:36:22.918Z,1024.55
2018-03-27T11:37:22.916Z,1024.44
2018-03-27T11:38:22.922Z,1024.44
2018-03-27T11:39:22.905Z,1024.37
2018-03-27T11:40:22.912Z,1024.37
2018-03-27T11:41:22.908Z,1024.37
2018-03-27T11:42:22.902Z,1024.36
2018-03-27T11:43:22.890Z,1024.38
2018-03-27T11:44:22.892Z,1024.4
2018-03-27T11:45:22.917Z,1024.38
2018-03-27T11:46:22.895Z,1024.37
2018-03-27T11:47:22.884Z,1024.36
2018-03-27T11:48:22.906Z,1024.33
2018-03-27T11:49:22.883Z,1024.32
2018-03-27T11:50:22.876Z,1024.3
2018-03-27T11:51:22.861Z,1024.23
2018-03-27T11:52:22.864Z,1024.35
2018-03-27T11:53:22.863Z,1024.43
2018-03-27T11:54:22.862Z,1024.53
2018-03-27T11:55:22.867Z,1024.59
2018-03-27T11:56:22.866Z,1024.65
2018-03-27T11:57:22.841Z,1024.74
2018-03-27T11:58:22.848Z,1024.83
2018-03-27T11:59:22.833Z,1024.81
2018-03-27T12:00:22.830Z,1024.75
2018-03-27T12:01:22.834Z,1024.74
2018-03-27T12:02:22.825Z,1024.72
2018-03-27T12:03:22.824Z,1024.8
2018-03-27T12:04:22.817Z,1024.81
2018-03-27T12:05:22.818Z,1024.8
2018-03-27T12:06:22.816Z,1024.82
2018-03-27T12:07:22.843Z,1024.79
2018-03-27T12:08:22.802Z,1024.81